aviador You're here:

SARL Decoded Metar

PASO DE LOS LIBRES in ARGENTINA
Report Time2017-11-24 18:00:00
UTC Time2017-11-24 18:42:02
Flight Rules vfr VFR
Wind140° at 10 kt
W.Decomp.*RWY 18: 8.7 kt HW 4.8 kt LCW
W.Rank140° ranks 3
Current wind is above 140° avg. (9.6)
Visibility8000 m
Phenomena:N/A
Clouds:Few 020 Hf
Expected CloudBase > 7,600 ft AGL from Temp-Dew spread
CeilingNone
Temp32°C (ISA +17)
Dew Point13°C (31% RH)
Heat Index30.9°C
AAT29.2°C
QNH1011 hPa
Density Alt2,490 ft
Elevation230 ft
Report Wrong Elevation
Raw Report
SARL 241800Z 14010KT 8000 FEW020 32/13 Q1011=

Extra information for SARL:More info

Metar Taf Metar & Taf Last 4 Metars F.Rules Stats Wind Profile Meteogram Temp Stats Airport Information Weather charts Add Link Nearby VenuesMetar ALERT Operation Metar Decoded Social comments